Time;durP1;ratioP1;P1;durP2;ratioP2;P2;SDS_P1;SDS_P2;PMS_P1;PMS_P2;Temp;Humidity;BMP_temperature;BMP_pressure;BME280_temperature;BME280_humidity;BME280_pressure;Samples;Min_cycle;Max_cycle;Signal;HPM_P1;HPM_P2
2021/07/20 00:00:58;;;;;;;5.25;3.40;;;;;;;20.71;66.00;101490.63;5033259;28;20063;-47
2021/07/20 00:03:48;;;;;;;5.20;3.22;;;;;;;20.62;66.47;101496.63;5031099;28;20056;-46
2021/07/20 00:06:37;;;;;;;3.63;3.03;;;;;;;20.53;66.80;101493.38;5034881;28;20049;-45
2021/07/20 00:09:24;;;;;;;5.63;2.75;;;;;;;20.52;66.53;101486.13;5031915;28;20065;-44
2021/07/20 00:12:11;;;;;;;5.22;2.72;;;;;;;20.50;66.68;101496.97;5032533;28;20053;-50
2021/07/20 00:14:58;;;;;;;5.05;3.05;;;;;;;20.39;67.01;101496.91;5031511;28;20486;-45
2021/07/20 00:17:48;;;;;;;4.45;2.85;;;;;;;20.39;67.28;101482.03;5023114;28;20053;-44
2021/07/20 00:20:39;;;;;;;4.43;3.05;;;;;;;20.42;66.94;101489.69;5030130;28;20052;-45
2021/07/20 00:23:28;;;;;;;3.05;2.67;;;;;;;20.41;66.90;101486.06;5033708;28;20836;-47
2021/07/20 00:26:15;;;;;;;6.38;3.63;;;;;;;20.30;67.33;101490.84;5030367;28;20049;-45
2021/07/20 00:29:02;;;;;;;8.43;4.20;;;;;;;20.20;67.83;101485.91;5021396;28;21084;-43
2021/07/20 00:31:49;;;;;;;11.35;8.20;;;;;;;20.15;67.80;101485.50;5030613;28;20059;-48
2021/07/20 00:34:38;;;;;;;18.85;11.93;;;;;;;20.04;68.03;101485.44;5031670;28;20053;-51
2021/07/20 00:37:25;;;;;;;15.32;11.85;;;;;;;19.90;68.81;101480.53;5033752;28;20054;-47
2021/07/20 00:40:15;;;;;;;14.85;10.98;;;;;;;19.90;68.89;101477.72;5030519;28;20517;-45
2021/07/20 00:43:04;;;;;;;16.73;11.63;;;;;;;19.90;68.91;101474.91;5033212;28;20044;-43
2021/07/20 00:45:51;;;;;;;19.35;14.65;;;;;;;19.91;68.70;101479.31;5030338;28;20053;-45
2021/07/20 00:48:38;;;;;;;20.08;14.65;;;;;;;19.91;68.73;101482.13;5028939;28;20922;-43
2021/07/20 00:51:25;;;;;;;20.05;15.40;;;;;;;19.92;68.99;101480.13;5034946;28;20422;-45
2021/07/20 00:54:12;;;;;;;17.20;13.32;;;;;;;19.93;68.80;101476.94;5032229;28;20522;-50
2021/07/20 00:57:01;;;;;;;19.10;14.15;;;;;;;19.92;69.12;101478.13;5019059;28;20439;-44
2021/07/20 00:59:48;;;;;;;15.43;11.48;;;;;;;19.93;69.12;101481.75;5035112;28;20053;-44
2021/07/20 01:02:35;;;;;;;9.25;6.70;;;;;;;19.86;69.25;101476.88;5036421;28;20825;-50
2021/07/20 01:05:25;;;;;;;7.57;5.30;;;;;;;19.85;69.35;101478.09;5035612;28;20082;-42
2021/07/20 01:08:12;;;;;;;5.18;3.75;;;;;;;19.84;69.49;101479.28;5031159;28;20057;-45
2021/07/20 01:11:01;;;;;;;5.43;3.60;;;;;;;19.86;69.59;101487.28;5031921;28;20057;-42
2021/07/20 01:13:49;;;;;;;6.88;4.57;;;;;;;19.87;69.27;101486.09;5030164;28;20049;-45
2021/07/20 01:16:38;;;;;;;6.70;3.30;;;;;;;19.82;69.89;101481.66;5032870;28;20674;-43
2021/07/20 01:19:30;;;;;;;7.00;3.13;;;;;;;19.82;70.00;101487.28;5034737;28;20509;-48
2021/07/20 01:22:27;;;;;;;5.47;4.13;;;;;;;19.78;69.89;101485.63;5036517;28;20059;-51
2021/07/20 01:25:14;;;;;;;3.75;2.83;;;;;;;19.76;70.27;101482.41;5036071;28;20119;-46
2021/07/20 01:28:07;;;;;;;4.50;3.15;;;;;;;19.75;70.19;101480.81;5033237;28;20064;-43
2021/07/20 01:30:58;;;;;;;5.57;3.40;;;;;;;19.73;70.51;101483.19;5032624;28;20060;-43
2021/07/20 01:33:49;;;;;;;6.57;3.77;;;;;;;19.74;70.30;101479.19;5034256;28;20089;-45
2021/07/20 01:36:38;;;;;;;5.60;3.22;;;;;;;19.70;70.61;101484.75;5036415;28;20312;-44
2021/07/20 01:39:27;;;;;;;6.80;3.22;;;;;;;19.73;70.61;101471.94;5037017;28;20069;-51
2021/07/20 01:42:15;;;;;;;9.77;4.30;;;;;;;19.69;71.09;101471.13;5034425;28;20130;-44
2021/07/20 01:45:03;;;;;;;6.45;3.28;;;;;;;19.67;71.21;101479.16;5037676;28;20057;-51
2021/07/20 01:47:51;;;;;;;5.32;3.40;;;;;;;19.68;70.91;101481.56;5037292;28;20060;-43
2021/07/20 01:50:38;;;;;;;4.30;2.80;;;;;;;19.70;70.98;101481.97;5035796;28;20053;-47
2021/07/20 01:53:26;;;;;;;6.25;3.42;;;;;;;19.67;71.13;101476.34;5035382;28;20049;-46
2021/07/20 01:56:13;;;;;;;4.20;3.15;;;;;;;19.65;71.05;101476.69;5032174;28;20495;-51
2021/07/20 01:59:00;;;;;;;5.20;3.50;;;;;;;19.65;71.00;101479.50;5035631;28;20056;-48
2021/07/20 02:02:00;;;;;;;3.90;2.22;;;;;;;19.61;71.46;101464.66;5033571;28;20098;-48
2021/07/20 02:11:02;;;;;;;5.10;2.92;;;;;;;19.51;71.37;101473.78;5035336;28;20053;-43
2021/07/20 02:13:56;;;;;;;4.28;3.45;;;;;;;19.44;71.93;101473.72;5032532;28;20122;-43
2021/07/20 02:16:48;;;;;;;4.68;2.95;;;;;;;19.41;72.36;101472.50;5032779;28;20553;-42
2021/07/20 02:19:40;;;;;;;4.30;3.40;;;;;;;19.37;72.30;101470.81;5033327;28;20559;-43
2021/07/20 02:22:27;;;;;;;;;;;;;;;19.30;72.41;101459.53;5033476;28;20056;-43
2021/07/20 02:25:15;;;;;;;7.72;3.75;;;;;;;19.31;71.96;101463.94;5034338;28;19925;-44
2021/07/20 02:28:04;;;;;;;4.32;3.13;;;;;;;19.31;72.21;101458.31;5035445;28;20056;-45
2021/07/20 02:30:52;;;;;;;5.38;3.22;;;;;;;19.27;72.49;101454.69;5029157;28;20060;-43
2021/07/20 02:33:41;;;;;;;5.60;3.63;;;;;;;19.23;72.78;101459.44;5031523;28;20053;-46
2021/07/20 02:36:29;;;;;;;6.85;4.28;;;;;;;19.26;72.61;101458.69;5031621;28;20061;-47
2021/07/20 02:39:19;;;;;;;3.13;2.65;;;;;;;19.23;72.52;101453.84;5031649;28;20127;-43
2021/07/20 02:42:07;;;;;;;3.70;3.17;;;;;;;19.23;72.44;101453.84;5021712;28;20049;-43
2021/07/20 02:44:56;;;;;;;4.00;3.15;;;;;;;19.23;72.80;101456.66;5028447;28;20045;-48
2021/07/20 02:47:44;;;;;;;6.75;4.03;;;;;;;19.19;72.78;101453.00;5036391;28;20109;-50
2021/07/20 02:50:33;;;;;;;9.00;3.95;;;;;;;19.17;73.51;101459.00;5035057;28;20372;-44
2021/07/20 02:53:22;;;;;;;6.05;3.85;;;;;;;19.19;73.24;101453.00;5033939;28;20047;-45
2021/07/20 02:56:11;;;;;;;9.00;4.47;;;;;;;19.17;73.51;101455.38;5035600;28;20646;-43
2021/07/20 02:59:05;;;;;;;5.13;3.60;;;;;;;19.17;73.70;101452.56;5033795;28;20138;-44
2021/07/20 03:01:55;;;;;;;6.78;4.20;;;;;;;19.18;73.49;101457.81;5033971;28;20194;-41
2021/07/20 03:04:43;;;;;;;9.82;4.32;;;;;;;19.15;73.32;101461.38;5035256;28;20110;-48
2021/07/20 03:07:33;;;;;;;7.15;3.78;;;;;;;19.13;73.73;101460.16;5035852;28;20570;-45
2021/07/20 03:10:22;;;;;;;9.77;4.00;;;;;;;19.08;73.77;101461.31;5032309;28;20057;-43
2021/07/20 03:13:12;;;;;;;7.93;3.58;;;;;;;19.06;73.78;101465.72;5029969;28;20057;-44
2021/07/20 03:16:03;;;;;;;6.07;3.45;;;;;;;19.08;73.80;101458.53;5034991;28;20140;-42
2021/07/20 03:18:53;;;;;;;4.20;3.40;;;;;;;19.05;73.86;101450.06;5036563;28;20049;-43
2021/07/20 03:21:42;;;;;;;9.57;3.78;;;;;;;19.06;73.95;101454.50;5029622;28;20103;-46
2021/07/20 03:24:30;;;;;;;6.20;3.00;;;;;;;19.02;73.85;101464.84;5035688;28;20053;-45
2021/07/20 03:27:17;;;;;;;6.47;3.25;;;;;;;19.03;73.85;101461.69;5018938;28;20414;-45
2021/07/20 03:30:06;;;;;;;5.32;3.20;;;;;;;18.99;74.33;101465.63;5005163;28;20061;-43
2021/07/20 03:32:54;;;;;;;5.95;3.38;;;;;;;18.97;74.25;101468.81;5013414;28;20064;-45
2021/07/20 03:35:41;;;;;;;4.38;3.47;;;;;;;19.00;74.22;101456.84;5012454;28;20124;-44
2021/07/20 03:38:29;;;;;;;7.38;4.35;;;;;;;18.93;74.17;101456.75;5010517;28;20060;-44
2021/07/20 03:41:17;;;;;;;5.80;3.35;;;;;;;18.85;74.44;101461.47;5013514;28;20073;-44
2021/07/20 03:44:06;;;;;;;4.82;3.17;;;;;;;18.82;74.83;101462.22;5009834;28;20069;-45
2021/07/20 03:46:53;;;;;;;4.75;3.53;;;;;;;18.82;74.72;101462.22;5009195;28;20065;-52
2021/07/20 03:49:41;;;;;;;5.72;3.10;;;;;;;18.81;74.63;101452.22;5006919;28;20046;-44
2021/07/20 03:52:30;;;;;;;9.20;3.42;;;;;;;18.83;74.66;101461.06;5012934;28;20063;-44
2021/07/20 03:55:18;;;;;;;3.75;3.10;;;;;;;18.79;74.42;101459.41;5010533;28;20056;-48
2021/07/20 03:58:05;;;;;;;6.13;3.40;;;;;;;18.78;74.58;101455.78;5008959;28;20073;-43
2021/07/20 04:00:59;;;;;;;4.53;3.22;;;;;;;18.73;74.71;101461.75;5009613;28;20057;-44
2021/07/20 04:03:49;;;;;;;5.93;3.83;;;;;;;18.75;74.77;101459.34;5011153;28;20154;-44
2021/07/20 04:06:40;;;;;;;8.45;4.93;;;;;;;18.74;74.75;101468.16;5007476;28;20046;-43
2021/07/20 04:09:28;;;;;;;6.35;4.50;;;;;;;18.71;74.67;101466.13;5009913;28;20057;-45
2021/07/20 04:12:16;;;;;;;4.25;3.85;;;;;;;18.66;74.95;101463.66;5012577;28;20107;-44
2021/07/20 04:15:04;;;;;;;5.57;3.92;;;;;;;18.63;74.83;101453.19;5011108;28;20084;-48
2021/07/20 04:17:51;;;;;;;6.47;5.38;;;;;;;18.59;75.00;101453.16;5009762;28;20054;-48
2021/07/20 04:20:38;;;;;;;8.05;6.43;;;;;;;18.63;74.90;101465.25;5011570;28;20064;-46
2021/07/20 04:23:27;;;;;;;6.82;5.05;;;;;;;18.62;75.00;101466.41;5010290;28;20065;-47
2021/07/20 04:26:14;;;;;;;7.75;5.20;;;;;;;18.62;74.86;101460.81;5028315;28;20057;-46
2021/07/20 04:29:01;;;;;;;7.57;5.93;;;;;;;18.61;74.87;101455.59;5034325;28;20099;-43
2021/07/20 04:31:52;;;;;;;8.85;5.53;;;;;;;18.60;74.88;101456.78;5035766;28;20049;-48
2021/07/20 04:34:39;;;;;;;7.60;4.82;;;;;;;18.59;74.82;101460.75;5036127;28;20052;-44
2021/07/20 04:37:28;;;;;;;7.38;5.75;;;;;;;18.60;74.96;101460.38;5034677;28;20501;-45
2021/07/20 04:40:16;;;;;;;7.97;5.88;;;;;;;18.57;75.14;101466.75;5036479;28;20057;-46
2021/07/20 04:43:05;;;;;;;7.38;5.35;;;;;;;18.58;75.12;101464.75;5034940;28;20060;-43
2021/07/20 04:45:54;;;;;;;9.73;5.80;;;;;;;18.57;75.06;101466.75;5034369;28;20060;-47
2021/07/20 04:48:41;;;;;;;7.88;5.30;;;;;;;18.58;74.88;101461.97;5035910;28;20434;-43
2021/07/20 04:51:33;;;;;;;7.30;5.72;;;;;;;18.59;75.03;101464.38;5037223;28;20135;-45
2021/07/20 04:54:22;;;;;;;7.00;5.93;;;;;;;18.59;74.95;101457.94;5035261;28;20067;-53
2021/07/20 04:57:09;;;;;;;8.73;5.72;;;;;;;18.57;75.20;101472.38;5034922;28;20145;-44
2021/07/20 04:59:58;;;;;;;8.70;6.00;;;;;;;18.54;75.06;101467.50;5033412;28;20060;-45
2021/07/20 05:02:47;;;;;;;10.00;6.05;;;;;;;18.52;75.42;101469.91;5020651;28;21957;-52
2021/07/20 05:05:39;;;;;;;7.20;5.53;;;;;;;18.51;75.68;101473.06;5035196;28;20057;-45
2021/07/20 05:08:28;;;;;;;11.68;6.30;;;;;;;18.54;75.63;101483.53;5033601;28;20061;-44
2021/07/20 05:11:19;;;;;;;9.00;6.47;;;;;;;18.51;75.98;101485.09;5033755;28;20072;-44
2021/07/20 05:14:07;;;;;;;11.32;6.95;;;;;;;18.50;75.82;101477.91;5032899;28;20056;-47
2021/07/20 05:16:55;;;;;;;13.45;8.27;;;;;;;18.48;76.15;101480.25;5034735;28;20060;-51
2021/07/20 05:19:42;;;;;;;8.95;6.65;;;;;;;18.52;76.20;101485.91;5035037;28;20048;-42
2021/07/20 05:22:33;;;;;;;10.95;5.82;;;;;;;18.49;76.59;101473.47;5036541;28;20147;-45
2021/07/20 05:25:21;;;;;;;9.98;5.82;;;;;;;18.47;76.61;101478.66;5032045;28;20132;-44
2021/07/20 05:28:10;;;;;;;6.07;4.70;;;;;;;18.48;76.74;101474.66;5031231;28;20047;-42
2021/07/20 05:31:00;;;;;;;7.43;4.78;;;;;;;18.50;76.96;101480.69;5027699;28;20052;-43
2021/07/20 05:33:48;;;;;;;7.10;4.43;;;;;;;18.54;76.77;101477.91;5018932;28;21545;-43
2021/07/20 05:36:35;;;;;;;5.05;4.03;;;;;;;18.54;76.86;101473.13;5033177;28;20053;-52
2021/07/20 05:39:24;;;;;;;8.43;5.05;;;;;;;18.59;77.03;101481.19;5030263;28;20141;-46
2021/07/20 05:42:12;;;;;;;4.70;4.07;;;;;;;18.62;76.98;101476.81;5032312;28;20521;-43
2021/07/20 05:45:00;;;;;;;7.78;3.67;;;;;;;18.63;77.08;101475.66;5033206;28;20057;-51
2021/07/20 05:47:49;;;;;;;6.30;3.63;;;;;;;18.66;77.08;101474.88;5034539;28;20526;-50
2021/07/20 05:50:41;;;;;;;9.40;4.18;;;;;;;18.66;77.24;101475.69;5036291;28;20052;-44
2021/07/20 05:53:31;;;;;;;8.40;4.55;;;;;;;18.74;77.10;101482.97;5036180;28;20136;-50
2021/07/20 05:56:20;;;;;;;6.40;3.75;;;;;;;18.80;76.93;101483.44;5034169;28;21109;-45
2021/07/20 05:59:07;;;;;;;5.10;3.45;;;;;;;18.84;77.09;101487.13;5033209;28;20057;-51
2021/07/20 06:01:56;;;;;;;10.52;4.97;;;;;;;18.89;77.09;101488.75;5035127;28;20060;-48
2021/07/20 06:04:44;;;;;;;3.92;2.78;;;;;;;18.95;77.05;101484.44;5033981;28;20048;-44
2021/07/20 06:07:32;;;;;;;6.68;3.67;;;;;;;19.01;76.96;101491.31;5033869;28;20057;-45
2021/07/20 06:10:20;;;;;;;6.80;3.55;;;;;;;19.02;76.82;101499.34;5032474;28;20041;-44
2021/07/20 06:13:11;;;;;;;5.03;3.63;;;;;;;19.07;77.29;101496.19;5034297;28;20049;-43
2021/07/20 06:15:59;;;;;;;6.25;2.83;;;;;;;19.16;76.99;101495.88;5035185;28;20088;-44
2021/07/20 06:18:46;;;;;;;4.75;2.85;;;;;;;19.13;76.97;101500.28;5037679;28;20809;-43
2021/07/20 06:21:35;;;;;;;6.13;2.63;;;;;;;19.14;77.21;101501.09;5030456;28;20060;-44
2021/07/20 06:24:23;;;;;;;5.95;3.17;;;;;;;19.18;77.13;101493.50;5036335;28;20056;-45
2021/07/20 06:27:12;;;;;;;4.63;2.63;;;;;;;19.23;76.97;101504.38;5033903;28;20049;-44
2021/07/20 06:30:01;;;;;;;5.20;2.75;;;;;;;19.27;76.98;101510.84;5032722;28;20368;-49
2021/07/20 06:32:51;;;;;;;5.15;1.98;;;;;;;19.26;77.14;101498.00;5032923;28;20159;-47
2021/07/20 06:35:40;;;;;;;5.47;3.30;;;;;;;19.36;77.06;101502.91;5033366;28;20061;-46
2021/07/20 06:38:28;;;;;;;2.95;2.60;;;;;;;19.45;77.09;101511.84;5033192;28;20132;-44
2021/07/20 06:41:18;;;;;;;3.00;2.03;;;;;;;19.46;77.02;101510.63;5036053;28;20106;-50
2021/07/20 06:44:07;;;;;;;3.50;2.03;;;;;;;19.55;76.77;101513.94;5034529;28;20060;-43
2021/07/20 06:46:55;;;;;;;2.45;1.80;;;;;;;19.58;76.93;101512.38;5033623;28;20057;-46
2021/07/20 06:49:46;;;;;;;4.05;2.40;;;;;;;19.60;76.89;101513.59;5037058;28;20403;-46
2021/07/20 06:52:34;;;;;;;6.90;2.30;;;;;;;19.65;76.61;101518.84;5031215;28;20055;-45
2021/07/20 06:55:22;;;;;;;4.95;2.60;;;;;;;19.66;76.61;101522.47;5034437;28;20046;-47
2021/07/20 06:58:12;;;;;;;3.65;2.33;;;;;;;19.67;76.42;101524.88;5034754;28;20063;-46
2021/07/20 07:01:02;;;;;;;3.97;2.05;;;;;;;19.66;76.44;101523.28;5032253;28;20053;-45
2021/07/20 07:04:09;;;;;;;10.07;2.95;;;;;;;19.70;76.19;101518.47;5029948;28;20053;-45
2021/07/20 07:06:58;;;;;;;5.90;3.10;;;;;;;19.79;76.22;101530.22;5034858;28;20071;-44
2021/07/20 07:09:48;;;;;;;8.05;2.67;;;;;;;19.84;76.24;101513.00;5019115;28;20073;-44
2021/07/20 07:12:37;;;;;;;6.40;2.30;;;;;;;19.92;76.34;101514.66;5028908;28;20425;-46
2021/07/20 07:15:24;;;;;;;5.43;2.50;;;;;;;20.01;76.12;101525.56;5033246;28;20621;-49
2021/07/20 07:18:17;;;;;;;10.93;2.45;;;;;;;20.09;76.06;101518.81;5033080;28;20045;-44
2021/07/20 07:21:05;;;;;;;5.65;2.30;;;;;;;20.15;75.95;101516.44;5032979;28;20053;-46
2021/07/20 07:23:52;;;;;;;3.78;2.05;;;;;;;20.25;75.73;101518.53;5031121;28;20044;-45
2021/07/20 07:26:41;;;;;;;3.97;1.75;;;;;;;20.38;76.10;101531.06;5034819;28;20402;-47
2021/07/20 07:29:28;;;;;;;2.40;1.63;;;;;;;20.50;75.77;101517.47;5032614;28;20053;-44
2021/07/20 07:32:15;;;;;;;4.22;1.95;;;;;;;20.65;75.86;101519.13;5036338;28;20521;-45
2021/07/20 07:35:03;;;;;;;5.78;2.15;;;;;;;20.70;75.69;101520.78;5025959;28;20049;-50
2021/07/20 07:37:53;;;;;;;2.58;1.70;;;;;;;20.81;75.82;101513.16;5021334;28;20072;-49
2021/07/20 07:40:42;;;;;;;4.32;1.98;;;;;;;20.92;75.96;101516.84;5038183;28;20847;-44
2021/07/20 07:43:30;;;;;;;6.72;2.28;;;;;;;21.01;76.01;101520.09;5035032;28;20064;-50
2021/07/20 07:46:19;;;;;;;3.05;2.05;;;;;;;21.12;75.96;101520.97;5033536;28;20060;-50
2021/07/20 07:49:08;;;;;;;4.07;2.15;;;;;;;21.33;75.86;101520.19;5037665;28;20049;-51
2021/07/20 07:51:56;;;;;;;2.42;1.75;;;;;;;21.54;76.15;101520.22;5035806;28;20421;-47
2021/07/20 07:54:47;;;;;;;2.90;1.83;;;;;;;21.74;74.40;101517.81;5032784;28;20048;-48
2021/07/20 07:57:35;;;;;;;4.63;2.38;;;;;;;21.97;76.04;101521.06;5035911;28;20055;-44
2021/07/20 08:00:26;;;;;;;2.05;1.90;;;;;;;22.27;74.32;101520.59;5035463;28;20055;-44
2021/07/20 08:03:16;;;;;;;3.22;2.00;;;;;;;22.67;73.96;101524.94;5031969;28;20052;-45
2021/07/20 08:06:06;;;;;;;3.72;2.15;;;;;;;23.19;72.80;101523.09;5035890;28;20052;-52
2021/07/20 08:08:55;;;;;;;3.63;1.88;;;;;;;23.77;71.25;101522.31;5033858;28;20059;-46
2021/07/20 08:11:44;;;;;;;3.22;2.00;;;;;;;24.47;68.66;101523.66;5031516;28;20106;-51
2021/07/20 08:14:31;;;;;;;3.83;1.77;;;;;;;25.12;66.17;101520.44;5033562;28;20052;-49
2021/07/20 08:17:19;;;;;;;5.45;2.30;;;;;;;25.65;63.58;101519.69;5018515;28;20983;-56
2021/07/20 08:20:11;;;;;;;3.83;2.50;;;;;;;26.14;61.56;101520.06;5025572;28;20061;-51
2021/07/20 08:22:58;;;;;;;5.07;2.03;;;;;;;26.61;60.45;101527.25;5034170;28;20081;-47
2021/07/20 08:25:51;;;;;;;4.03;1.88;;;;;;;26.98;58.54;101526.13;5029912;28;20057;-48
2021/07/20 08:28:47;;;;;;;3.95;1.80;;;;;;;27.29;56.76;101530.28;5034733;28;20060;-50
2021/07/20 08:31:51;;;;;;;4.53;1.70;;;;;;;27.62;54.17;101516.91;5029648;28;20548;-45
2021/07/20 08:34:44;;;;;;;5.15;1.90;;;;;;;27.86;53.98;101521.19;5031337;28;20286;-52
2021/07/20 08:37:53;;;;;;;6.43;1.92;;;;;;;28.09;53.55;101528.78;5033964;28;20422;-47
2021/07/20 08:40:49;;;;;;;2.50;1.33;;;;;;;28.37;51.23;101528.81;5032738;28;20045;-53
2021/07/20 08:44:07;;;;;;;1.65;1.35;;;;;;;28.68;50.98;101529.19;5027491;28;20058;-51
2021/07/20 08:46:54;;;;;;;6.03;2.13;;;;;;;28.96;51.04;101527.56;5028129;28;20128;-56
2021/07/20 08:50:02;;;;;;;11.35;2.10;;;;;;;29.04;49.23;101531.00;5030214;28;20053;-54
2021/07/20 08:53:08;;;;;;;3.35;1.50;;;;;;;29.22;48.01;101525.56;5028305;28;20049;-51
2021/07/20 08:55:58;;;;;;;5.28;1.90;;;;;;;29.38;48.96;101528.31;5030148;28;20053;-46
2021/07/20 08:58:54;;;;;;;3.75;1.73;;;;;;;29.34;48.42;101519.84;5025370;28;20056;-49
2021/07/20 09:02:01;;;;;;;4.25;1.83;;;;;;;29.35;46.04;101527.16;5029072;28;20464;-48
2021/07/20 09:05:05;;;;;;;2.42;1.48;;;;;;;29.54;47.49;101526.16;5032143;28;20075;-49
2021/07/20 09:08:31;;;;;;;4.95;1.52;;;;;;;29.68;46.73;101521.22;5020841;28;20076;-47
2021/07/20 09:11:38;;;;;;;5.63;1.77;;;;;;;29.71;46.51;101523.94;5015940;28;20048;-52
2021/07/20 09:14:35;;;;;;;4.43;1.48;;;;;;;29.74;46.06;101519.38;5032722;28;20139;-53
2021/07/20 09:17:36;;;;;;;5.30;1.58;;;;;;;29.71;46.06;101520.28;5032001;28;20064;-52
2021/07/20 09:20:28;;;;;;;3.53;1.80;;;;;;;29.89;45.31;101526.25;5025154;28;20057;-48
2021/07/20 09:23:23;;;;;;;3.60;1.80;;;;;;;29.74;45.30;101520.19;5029594;28;20156;-47
2021/07/20 09:26:19;;;;;;;2.88;1.33;;;;;;;29.75;45.63;101523.84;5028058;28;20072;-44
2021/07/20 09:29:14;;;;;;;3.25;1.60;;;;;;;29.85;45.45;101531.28;5024512;28;20188;-44
2021/07/20 09:32:04;;;;;;;4.25;1.65;;;;;;;29.90;45.80;101527.84;5020222;28;20080;-45
2021/07/20 09:35:04;;;;;;;3.67;1.27;;;;;;;30.10;45.00;101528.38;5019519;28;20422;-49
2021/07/20 09:38:07;;;;;;;7.78;2.88;;;;;;;30.03;44.27;101526.56;5025405;28;20060;-46
2021/07/20 09:41:06;;;;;;;2.85;1.70;;;;;;;29.86;43.54;101527.16;5021371;28;20548;-49
2021/07/20 09:44:01;;;;;;;2.78;1.77;;;;;;;29.48;44.52;101521.47;5025398;28;20045;-52
2021/07/20 09:46:57;;;;;;;3.67;1.60;;;;;;;29.53;45.33;101527.41;5021036;28;20053;-46
2021/07/20 09:49:47;;;;;;;3.50;1.88;;;;;;;29.68;45.20;101516.28;5022015;28;20498;-49
2021/07/20 09:52:47;;;;;;;4.88;1.90;;;;;;;29.86;44.44;101510.03;5022596;28;20467;-48
2021/07/20 09:55:42;;;;;;;3.90;1.97;;;;;;;30.06;44.19;101510.56;5022024;28;20846;-44
2021/07/20 09:58:40;;;;;;;6.13;1.73;;;;;;;29.99;44.49;101507.94;5028770;28;20065;-52
2021/07/20 10:01:34;;;;;;;2.85;1.90;;;;;;;29.70;44.26;101516.66;5013640;28;20848;-48
2021/07/20 10:04:32;;;;;;;3.63;1.70;;;;;;;29.68;44.38;101515.53;5022770;28;20068;-50
2021/07/20 10:07:40;;;;;;;3.67;1.30;;;;;;;29.87;44.15;101512.41;5022970;28;20140;-46
2021/07/20 10:10:27;;;;;;;5.85;2.38;;;;;;;29.79;44.26;101511.06;5023317;28;20072;-46
2021/07/20 10:13:23;;;;;;;5.47;1.50;;;;;;;29.98;44.27;101514.91;5021152;28;20454;-45
2021/07/20 10:16:21;;;;;;;4.28;1.42;;;;;;;30.09;44.05;101518.19;5024502;28;20901;-45
2021/07/20 10:19:16;;;;;;;4.57;1.40;;;;;;;30.13;44.00;101518.84;5020756;28;20566;-45
2021/07/20 10:22:07;;;;;;;5.65;1.48;;;;;;;29.97;43.89;101519.81;5022848;28;20064;-46
2021/07/20 10:24:57;;;;;;;2.90;1.10;;;;;;;29.72;43.44;101521.91;5024048;28;20060;-51
2021/07/20 10:27:52;;;;;;;3.30;1.50;;;;;;;29.48;44.56;101530.03;5006450;28;20064;-47
2021/07/20 10:30:42;;;;;;;2.42;1.40;;;;;;;29.50;44.55;101519.75;5000270;28;20178;-49
2021/07/20 10:33:44;;;;;;;3.35;1.38;;;;;;;29.55;44.18;101526.94;5002817;28;20053;-52
2021/07/20 10:36:56;;;;;;;2.55;1.10;;;;;;;29.25;44.56;101531.16;5002279;28;20046;-46
2021/07/20 10:39:56;;;;;;;3.85;1.52;;;;;;;29.12;44.79;101527.47;5001945;28;20065;-50
2021/07/20 10:43:12;;;;;;;3.53;1.37;;;;;;;29.05;44.79;101536.22;5004539;28;20056;-53
2021/07/20 10:46:04;;;;;;;3.50;1.58;;;;;;;28.75;45.11;101531.81;5002435;28;20295;-49
2021/07/20 10:49:00;;;;;;;5.63;1.38;;;;;;;28.56;46.06;101531.97;5000177;28;20304;-51
2021/07/20 10:51:49;;;;;;;3.95;1.35;;;;;;;28.47;46.09;101529.75;5003092;28;20499;-53
2021/07/20 10:54:44;;;;;;;4.25;1.27;;;;;;;28.28;46.14;101531.50;4998661;28;20061;-48
2021/07/20 10:57:42;;;;;;;5.43;1.80;;;;;;;27.97;46.70;101526.63;4997316;28;20046;-48
2021/07/20 11:00:43;;;;;;;4.35;1.88;;;;;;;27.74;46.70;101530.47;5003033;28;20052;-49
2021/07/20 11:03:36;;;;;;;8.65;1.70;;;;;;;27.55;47.03;101522.78;5002486;28;20053;-45
2021/07/20 11:06:24;;;;;;;6.03;1.60;;;;;;;27.22;47.49;101524.75;5001263;28;20307;-50
2021/07/20 11:09:20;;;;;;;8.93;1.95;;;;;;;27.07;48.32;101529.97;4992874;28;20053;-45
2021/07/20 11:12:09;;;;;;;8.60;1.88;;;;;;;26.93;48.16;101521.75;5005357;28;20057;-47
2021/07/20 11:14:58;;;;;;;1.77;1.40;;;;;;;26.89;48.58;101529.56;4985627;28;20064;-53
2021/07/20 11:17:46;;;;;;;4.53;1.80;;;;;;;26.57;49.05;101526.53;5002946;28;20293;-44
2021/07/20 11:20:41;;;;;;;1.98;1.52;;;;;;;26.47;49.47;101527.56;5005246;28;20057;-47
2021/07/20 11:23:31;;;;;;;4.88;1.70;;;;;;;26.46;49.33;101523.09;4999983;28;20068;-51
2021/07/20 11:26:20;;;;;;;6.85;1.50;;;;;;;26.36;49.64;101516.41;5017025;28;20053;-46
2021/07/20 11:29:07;;;;;;;7.85;2.70;;;;;;;26.20;50.22;101521.16;5023978;28;20057;-48
2021/07/20 11:31:58;;;;;;;5.72;1.50;;;;;;;26.20;50.49;101521.97;5023706;28;20450;-47
2021/07/20 11:34:53;;;;;;;7.80;2.33;;;;;;;26.15;50.72;101530.19;5019220;28;20061;-48
2021/07/20 11:38:00;;;;;;;5.25;1.70;;;;;;;26.09;51.60;101523.38;5025257;28;20072;-53
2021/07/20 11:41:02;;;;;;;4.35;1.92;;;;;;;26.24;50.36;101528.38;5027384;28;20102;-44
2021/07/20 11:44:16;;;;;;;4.10;1.98;;;;;;;26.12;50.89;101525.34;5026026;28;20771;-44
2021/07/20 11:47:12;;;;;;;6.25;1.83;;;;;;;26.09;50.95;101531.88;5017708;28;20471;-47
2021/07/20 11:50:11;;;;;;;2.67;1.80;;;;;;;26.06;51.00;101519.34;5020748;28;20056;-47
2021/07/20 11:53:07;;;;;;;4.55;1.50;;;;;;;26.10;50.71;101524.97;5025317;28;20049;-45
2021/07/20 11:56:28;;;;;;;4.90;1.33;;;;;;;25.96;51.18;101524.00;5021223;28;20151;-50
2021/07/20 11:59:15;;;;;;;4.20;1.57;;;;;;;26.13;50.96;101527.00;5021459;28;20580;-44
2021/07/20 12:02:30;;;;;;;5.45;1.75;;;;;;;26.17;51.06;101527.72;5023404;28;20551;-46
2021/07/20 12:05:38;;;;;;;4.38;1.55;;;;;;;26.15;51.64;101531.00;5023694;28;20490;-47
2021/07/20 12:08:51;;;;;;;9.32;3.50;;;;;;;26.24;50.31;101528.38;5023502;28;20108;-51
2021/07/20 12:11:43;;;;;;;7.43;1.70;;;;;;;26.33;50.96;101531.47;5021361;28;20091;-45
2021/07/20 12:14:30;;;;;;;;;;;;;;;26.49;50.16;101533.59;5018832;28;20053;-49
2021/07/20 12:17:17;;;;;;;5.35;1.52;;;;;;;26.40;50.42;101536.19;5018721;28;19929;-55
2021/07/20 12:20:06;;;;;;;1.58;1.23;;;;;;;26.46;50.25;101546.63;5018809;28;20064;-46
2021/07/20 12:22:55;;;;;;;4.07;1.77;;;;;;;26.44;49.89;101542.63;5012804;28;20057;-49
2021/07/20 12:25:43;;;;;;;2.50;1.42;;;;;;;26.41;49.97;101543.47;5011007;28;20140;-48
2021/07/20 12:28:10;;;;;;;3.10;1.30;;;;;;;26.32;49.97;101540.41;5020693;28;20731;-47
2021/07/20 12:30:37;;;;;;;4.55;1.50;;;;;;;26.28;50.23;101545.34;5018519;28;20149;-46
2021/07/20 12:33:13;;;;;;;1.35;1.20;;;;;;;26.34;50.43;101541.59;5021935;28;20063;-47
2021/07/20 12:35:44;;;;;;;3.58;1.88;;;;;;;26.37;50.31;101543.53;5020765;28;20115;-47
2021/07/20 12:38:12;;;;;;;;;;;;;;;26.41;49.62;101537.81;5021001;28;20061;-48
2021/07/20 12:40:39;;;;;;;5.38;3.00;;;;;;;26.35;50.21;101536.69;5013144;28;19925;-46
2021/07/20 12:43:14;;;;;;;5.00;2.38;;;;;;;26.36;49.82;101530.59;5018180;28;20065;-50
2021/07/20 12:45:44;;;;;;;5.10;1.60;;;;;;;26.48;49.74;101535.63;5010762;28;20069;-47
2021/07/20 12:48:30;;;;;;;3.85;1.85;;;;;;;26.51;49.94;101536.78;5008320;28;20141;-47
2021/07/20 12:51:08;;;;;;;6.28;1.42;;;;;;;26.59;49.66;101532.56;5028226;28;20059;-47
2021/07/20 12:53:42;;;;;;;2.92;1.15;;;;;;;26.47;49.64;101536.06;5021057;28;20147;-46
2021/07/20 12:56:20;;;;;;;5.97;1.98;;;;;;;26.53;49.77;101526.59;5026276;28;20139;-49
2021/07/20 12:58:52;;;;;;;2.33;1.38;;;;;;;26.76;48.88;101522.91;5024003;28;20095;-51
2021/07/20 13:01:23;;;;;;;4.18;1.40;;;;;;;26.89;49.10;101526.72;5028032;28;20037;-46
2021/07/20 13:03:56;;;;;;;1.85;1.33;;;;;;;26.95;48.82;101533.47;5028745;28;20047;-47
2021/07/20 13:06:24;;;;;;;3.65;1.38;;;;;;;27.07;48.71;101535.66;5026915;28;20498;-47
2021/07/20 13:08:52;;;;;;;2.63;1.40;;;;;;;27.20;48.85;101527.25;5024616;28;20081;-44
2021/07/20 13:11:20;;;;;;;3.55;1.40;;;;;;;27.11;48.06;101527.06;5024993;28;20041;-50
2021/07/20 13:13:48;;;;;;;2.65;1.27;;;;;;;27.19;48.16;101531.34;5025846;28;20450;-51
2021/07/20 13:16:21;;;;;;;1.90;1.45;;;;;;;27.33;48.13;101542.38;5025416;28;20128;-47